Time;durP1;ratioP1;P1;durP2;ratioP2;P2;SDS_P1;SDS_P2;PMS_P1;PMS_P2;Temp;Humidity;BMP_temperature;BMP_pressure;BME280_temperature;BME280_humidity;BME280_pressure;Samples;Min_cycle;Max_cycle;Signal;HPM_P1;HPM_P2
2022/12/08 00:00:24;;;;;;;9.47;6.10;;;0.60;99.90;;;;;;5036759;28;20458;-49
2022/12/08 00:02:52;;;;;;;6.73;6.00;;;0.50;99.90;;;;;;5034995;28;20458;-51
2022/12/08 00:11:02;;;;;;;10.70;6.87;;;0.50;99.90;;;;;;4975445;28;20446;-50
2022/12/08 00:13:29;;;;;;;8.63;5.87;;;0.50;99.90;;;;;;4976314;28;20551;-51
2022/12/08 00:16:00;;;;;;;6.53;5.90;;;0.50;99.90;;;;;;5002425;28;20486;-50
2022/12/08 00:18:28;;;;;;;7.70;5.47;;;0.60;99.90;;;;;;5035966;28;20883;-50
2022/12/08 00:20:55;;;;;;;7.43;5.70;;;0.50;99.90;;;;;;5039472;28;20459;-50
2022/12/08 00:23:22;;;;;;;5.53;5.00;;;0.50;99.90;;;;;;5038060;28;20440;-50
2022/12/08 00:25:48;;;;;;;10.93;7.17;;;0.50;1.40;;;;;;5035884;28;20824;-50
2022/12/08 00:28:15;;;;;;;8.47;6.13;;;0.50;99.90;;;;;;5036748;28;20459;-51
2022/12/08 00:30:43;;;;;;;8.47;5.67;;;0.40;99.90;;;;;;5036382;28;20513;-51
2022/12/08 00:33:09;;;;;;;14.43;6.67;;;0.50;99.90;;;;;;5031595;28;20474;-50
2022/12/08 00:35:37;;;;;;;6.10;5.50;;;0.40;99.90;;;;;;5039628;28;20494;-50
2022/12/08 00:38:04;;;;;;;13.00;7.00;;;0.50;99.90;;;;;;5036169;28;21247;-50
2022/12/08 00:40:31;;;;;;;7.70;6.17;;;0.50;99.90;;;;;;5036194;28;20466;-49
2022/12/08 00:42:57;;;;;;;9.53;5.40;;;0.50;99.90;;;;;;5036519;28;20877;-50
2022/12/08 00:45:24;;;;;;;7.43;5.20;;;0.50;99.90;;;;;;5036186;28;20458;-52
2022/12/08 00:47:50;;;;;;;6.00;5.40;;;0.60;99.90;;;;;;5034257;28;20528;-50
2022/12/08 00:50:17;;;;;;;11.73;5.40;;;0.60;99.90;;;;;;5036586;28;20466;-50
2022/12/08 00:52:45;;;;;;;5.97;5.17;;;0.50;1.40;;;;;;5036697;28;20573;-51
2022/12/08 00:55:11;;;;;;;5.73;4.77;;;0.60;99.90;;;;;;5036748;28;20454;-51
2022/12/08 00:57:38;;;;;;;6.60;5.17;;;0.60;99.90;;;;;;5034616;28;20524;-51
2022/12/08 01:00:06;;;;;;;5.40;4.90;;;0.60;99.90;;;;;;5035328;28;20494;-50
2022/12/08 01:02:33;;;;;;;8.20;5.33;;;0.60;99.90;;;;;;5035196;28;20531;-50
2022/12/08 01:04:59;;;;;;;5.10;4.30;;;0.60;99.90;;;;;;5032211;28;20460;-50
2022/12/08 01:07:26;;;;;;;10.93;5.57;;;0.60;99.90;;;;;;5017470;28;20560;-51
2022/12/08 01:09:54;;;;;;;8.17;5.53;;;0.60;99.90;;;;;;5014562;28;20456;-50
2022/12/08 01:12:21;;;;;;;8.67;6.33;;;0.60;99.90;;;;;;5011858;28;20491;-50
2022/12/08 01:14:47;;;;;;;8.50;6.20;;;0.60;99.90;;;;;;5005992;28;20513;-50
2022/12/08 01:17:14;;;;;;;6.47;5.60;;;0.60;99.90;;;;;;5012509;28;20487;-50
2022/12/08 01:19:40;;;;;;;7.67;6.03;;;0.60;99.90;;;;;;5009306;28;20467;-50
2022/12/08 01:22:07;;;;;;;7.20;6.23;;;0.60;99.90;;;;;;5002107;28;20839;-50
2022/12/08 01:24:34;;;;;;;7.20;5.90;;;0.60;99.90;;;;;;5009734;28;20486;-50
2022/12/08 01:27:01;;;;;;;6.20;5.67;;;0.60;99.90;;;;;;5014136;28;20479;-51
2022/12/08 01:29:28;;;;;;;9.07;6.77;;;0.60;99.90;;;;;;5013226;28;20463;-51
2022/12/08 01:31:55;;;;;;;6.90;6.20;;;0.60;99.90;;;;;;5012940;28;20443;-50
2022/12/08 01:34:21;;;;;;;8.23;5.87;;;0.60;99.90;;;;;;5011928;28;20495;-52
2022/12/08 01:36:48;;;;;;;8.40;7.00;;;0.50;99.90;;;;;;5013394;28;20483;-51
2022/12/08 01:39:16;;;;;;;8.20;7.40;;;0.60;99.90;;;;;;5014729;28;20467;-51
2022/12/08 01:41:44;;;;;;;7.80;6.90;;;0.60;99.90;;;;;;5013827;28;21444;-50
2022/12/08 01:44:55;;;;;;;7.83;7.03;;;0.60;99.90;;;;;;5010018;28;20495;-51
2022/12/08 01:47:24;;;;;;;9.07;7.00;;;0.60;99.90;;;;;;5006550;28;20832;-50
2022/12/08 01:49:51;;;;;;;7.20;6.40;;;0.60;99.90;;;;;;5013493;28;20960;-51
2022/12/08 01:52:22;;;;;;;9.90;7.93;;;0.70;99.90;;;;;;5011345;28;20463;-51
2022/12/08 01:54:52;;;;;;;8.47;7.57;;;0.60;99.90;;;;;;5014759;28;20460;-50
2022/12/08 01:57:23;;;;;;;9.70;7.37;;;0.70;99.90;;;;;;5014944;28;20483;-50
2022/12/08 01:59:53;;;;;;;9.70;6.33;;;0.70;99.90;;;;;;5012957;28;20915;-50
2022/12/08 02:02:22;;;;;;;8.80;8.00;;;0.70;99.90;;;;;;5010880;28;20456;-49
2022/12/08 02:04:48;;;;;;;6.90;6.30;;;0.80;99.90;;;;;;5010776;28;21202;-50
2022/12/08 02:07:17;;;;;;;8.23;7.20;;;0.80;99.90;;;;;;5025388;28;20494;-50
2022/12/08 02:09:45;;;;;;;7.90;7.13;;;0.80;99.90;;;;;;5027134;28;20462;-50
2022/12/08 02:12:11;;;;;;;8.23;7.43;;;0.80;99.90;;;;;;5032449;28;20679;-50
2022/12/08 02:14:38;;;;;;;8.03;6.90;;;0.80;99.90;;;;;;5020030;28;20483;-50
2022/12/08 02:17:16;;;;;;;7.93;7.13;;;0.80;99.90;;;;;;5030150;28;20483;-50
2022/12/08 02:20:07;;;;;;;7.53;6.73;;;0.80;99.90;;;;;;5027981;28;20970;-51
2022/12/08 02:22:43;;;;;;;7.53;6.83;;;0.90;99.90;;;;;;5032563;28;20524;-50
2022/12/08 02:25:18;;;;;;;7.97;7.17;;;0.80;99.90;;;;;;5028518;28;20494;-50
2022/12/08 02:28:00;;;;;;;8.20;7.27;;;0.80;99.90;;;;;;5030797;28;20454;-50
2022/12/08 02:30:37;;;;;;;8.43;7.63;;;0.80;99.90;;;;;;5031278;28;20875;-50
2022/12/08 02:33:34;;;;;;;7.90;6.50;;;0.90;99.90;;;;;;5033472;28;20536;-50
2022/12/08 02:36:10;;;;;;;6.97;6.27;;;0.90;99.90;;;;;;5030824;28;20537;-50
2022/12/08 02:38:45;;;;;;;7.43;6.70;;;0.90;99.90;;;;;;5028940;28;20465;-51
2022/12/08 02:41:20;;;;;;;8.97;6.43;;;0.90;99.90;;;;;;5032736;28;20542;-50
2022/12/08 02:43:49;;;;;;;7.13;6.43;;;0.90;99.90;;;;;;5031644;28;20458;-51
2022/12/08 02:46:20;;;;;;;6.73;6.13;;;0.80;99.90;;;;;;5036080;28;20508;-51
2022/12/08 02:48:48;;;;;;;7.13;6.47;;;0.90;99.90;;;;;;5024913;28;20962;-51
2022/12/08 02:51:16;;;;;;;6.07;5.53;;;0.90;99.90;;;;;;5034555;28;20466;-51
2022/12/08 02:53:44;;;;;;;7.27;6.70;;;0.90;99.90;;;;;;5038459;28;20536;-51
2022/12/08 02:56:24;;;;;;;6.67;6.07;;;0.90;99.90;;;;;;5034171;28;20488;-50
2022/12/08 02:59:05;;;;;;;8.07;6.60;;;0.90;99.90;;;;;;5035428;28;20470;-51
2022/12/08 03:01:49;;;;;;;7.17;6.57;;;0.90;99.90;;;;;;5030272;28;20622;-49
2022/12/08 03:04:23;;;;;;;6.37;5.77;;;0.90;99.90;;;;;;5026329;28;20520;-50
2022/12/08 03:06:58;;;;;;;10.03;7.60;;;0.90;99.90;;;;;;5016139;28;21001;-51
2022/12/08 03:09:33;;;;;;;6.70;6.10;;;0.90;99.90;;;;;;5012182;28;20471;-52
2022/12/08 03:12:05;;;;;;;7.10;6.40;;;0.90;99.90;;;;;;5009812;28;20874;-50
2022/12/08 03:14:33;;;;;;;7.40;6.70;;;0.90;99.90;;;;;;5010186;28;20529;-50
2022/12/08 03:17:01;;;;;;;7.57;6.87;;;1.00;99.90;;;;;;5005977;28;20535;-51
2022/12/08 03:19:32;;;;;;;7.33;6.67;;;1.00;99.90;;;;;;5011707;28;20468;-51
2022/12/08 03:22:02;;;;;;;7.17;6.47;;;1.00;99.90;;;;;;5003232;28;20495;-50
2022/12/08 03:24:32;;;;;;;6.33;5.83;;;1.00;99.90;;;;;;5009396;28;20452;-54
2022/12/08 03:27:02;;;;;;;6.53;5.87;;;1.00;99.90;;;;;;5011107;28;20484;-51
2022/12/08 03:29:29;;;;;;;6.33;5.80;;;1.00;99.90;;;;;;5009442;28;20467;-51
2022/12/08 03:32:03;;;;;;;7.13;6.43;;;1.00;99.90;;;;;;5010889;28;20464;-51
2022/12/08 03:34:30;;;;;;;6.73;6.20;;;1.00;99.90;;;;;;5006509;28;20565;-50
2022/12/08 03:36:56;;;;;;;6.40;5.80;;;1.00;99.90;;;;;;5011124;28;20553;-50
2022/12/08 03:39:24;;;;;;;6.17;5.67;;;1.00;99.90;;;;;;5010287;28;20819;-50
2022/12/08 03:41:51;;;;;;;6.00;5.50;;;1.00;99.90;;;;;;5012400;28;20467;-50
2022/12/08 03:44:17;;;;;;;6.33;5.77;;;1.00;99.90;;;;;;5014889;28;20849;-50
2022/12/08 03:46:44;;;;;;;6.20;5.70;;;1.00;99.90;;;;;;5010409;28;20534;-52
2022/12/08 03:49:11;;;;;;;7.33;6.60;;;1.00;99.90;;;;;;5000916;28;20464;-50
2022/12/08 03:51:38;;;;;;;6.17;5.73;;;1.00;99.90;;;;;;5010589;28;20467;-50
2022/12/08 03:54:04;;;;;;;5.87;5.27;;;1.10;99.90;;;;;;5012374;28;20479;-50
2022/12/08 03:56:35;;;;;;;5.80;5.30;;;1.00;1.40;;;;;;5009478;28;20890;-50
2022/12/08 03:59:01;;;;;;;5.70;5.17;;;1.10;99.90;;;;;;5008149;28;20460;-50
2022/12/08 04:01:28;;;;;;;5.13;4.80;;;1.10;99.90;;;;;;5015529;28;20537;-50
2022/12/08 04:03:55;;;;;;;4.60;4.30;;;1.10;99.90;;;;;;5023762;28;20456;-51
2022/12/08 04:06:22;;;;;;;5.00;4.60;;;1.00;99.90;;;;;;5034394;22;20898;-52
2022/12/08 04:08:49;;;;;;;4.70;4.30;;;1.10;99.90;;;;;;5043378;28;20474;-50
2022/12/08 04:11:17;;;;;;;5.30;4.90;;;1.00;99.90;;;;;;5051298;28;20923;-50
2022/12/08 04:13:45;;;;;;;5.00;4.60;;;1.10;99.90;;;;;;5051664;28;20622;-50
2022/12/08 04:16:16;;;;;;;4.80;4.43;;;1.10;99.90;;;;;;5040930;28;20458;-51
2022/12/08 04:18:43;;;;;;;5.60;5.20;;;1.10;99.90;;;;;;5027684;28;21088;-50
2022/12/08 04:21:09;;;;;;;4.60;4.27;;;1.00;99.90;;;;;;5029573;28;20504;-50
2022/12/08 04:23:36;;;;;;;4.23;3.97;;;1.00;99.90;;;;;;5030793;28;20879;-50
2022/12/08 04:26:03;;;;;;;6.03;5.53;;;1.00;99.90;;;;;;5027438;28;20471;-50
2022/12/08 04:28:29;;;;;;;5.63;5.13;;;1.00;99.90;;;;;;5026262;28;20899;-50
2022/12/08 04:30:57;;;;;;;5.53;5.07;;;1.00;99.90;;;;;;5030677;28;20451;-50
2022/12/08 04:33:24;;;;;;;4.80;4.50;;;0.90;99.90;;;;;;5031458;28;20492;-50
2022/12/08 04:35:51;;;;;;;4.50;4.20;;;0.90;99.90;;;;;;5027944;28;20463;-50
2022/12/08 04:38:17;;;;;;;4.10;3.80;;;0.90;1.40;;;;;;5030523;28;20474;-50
2022/12/08 04:40:44;;;;;;;4.90;4.50;;;1.00;99.90;;;;;;5029363;28;20462;-50
2022/12/08 04:43:11;;;;;;;4.53;4.23;;;0.90;99.90;;;;;;5018984;28;20510;-51
2022/12/08 04:45:39;;;;;;;5.30;4.63;;;1.00;99.90;;;;;;5033629;28;20462;-51
2022/12/08 04:48:08;;;;;;;4.77;4.37;;;1.00;99.90;;;;;;5034065;28;20482;-50
2022/12/08 04:50:35;;;;;;;4.60;4.30;;;1.00;99.90;;;;;;5030261;28;20466;-50
2022/12/08 04:53:01;;;;;;;4.13;3.93;;;1.00;99.90;;;;;;5033439;28;20470;-50
2022/12/08 04:55:28;;;;;;;5.13;4.73;;;1.00;99.90;;;;;;5034786;28;20478;-50
2022/12/08 04:57:55;;;;;;;4.40;4.10;;;1.00;99.90;;;;;;5029657;28;20894;-50
2022/12/08 05:00:21;;;;;;;3.87;3.67;;;0.90;99.90;;;;;;5029616;28;20467;-50
2022/12/08 05:02:48;;;;;;;3.83;3.63;;;0.90;99.90;;;;;;5034386;28;20443;-50
2022/12/08 05:05:16;;;;;;;4.50;4.20;;;1.00;99.90;;;;;;5033758;28;20880;-50
2022/12/08 05:07:43;;;;;;;4.50;4.20;;;1.00;99.90;;;;;;5033240;28;20527;-50
2022/12/08 05:10:09;;;;;;;5.40;4.93;;;1.00;99.90;;;;;;5024823;28;20459;-50
2022/12/08 05:12:36;;;;;;;5.40;5.00;;;1.00;99.90;;;;;;5031787;28;20549;-50
2022/12/08 05:15:03;;;;;;;6.23;5.73;;;1.00;99.90;;;;;;5028378;28;22399;-49
2022/12/08 05:17:30;;;;;;;5.50;5.10;;;1.00;99.90;;;;;;5034624;28;20464;-50
2022/12/08 05:19:57;;;;;;;5.40;5.00;;;1.00;99.90;;;;;;5028088;28;20827;-48
2022/12/08 05:22:24;;;;;;;4.87;4.47;;;1.00;99.90;;;;;;5028536;28;20814;-50
2022/12/08 05:24:51;;;;;;;6.57;6.00;;;1.00;99.90;;;;;;5030301;28;20517;-49
2022/12/08 05:27:18;;;;;;;5.40;5.00;;;1.00;99.90;;;;;;5033117;28;20532;-50
2022/12/08 05:29:46;;;;;;;5.67;5.27;;;1.00;99.90;;;;;;5031255;28;20870;-50
2022/12/08 05:32:13;;;;;;;5.80;5.30;;;1.00;99.90;;;;;;5028444;28;20468;-51
2022/12/08 05:34:40;;;;;;;5.60;5.10;;;1.00;99.90;;;;;;5026815;28;20850;-53
2022/12/08 05:37:06;;;;;;;7.17;5.60;;;1.10;99.90;;;;;;5033749;28;20479;-55
2022/12/08 05:39:35;;;;;;;5.53;5.23;;;1.10;99.90;;;;;;5030529;28;20467;-55
2022/12/08 05:42:01;;;;;;;6.90;6.30;;;1.10;99.90;;;;;;5033391;28;20466;-55
2022/12/08 05:44:28;;;;;;;6.93;6.40;;;1.10;99.90;;;;;;5022808;28;20530;-54
2022/12/08 05:46:54;;;;;;;7.40;6.70;;;1.10;99.90;;;;;;5041279;28;20883;-55
2022/12/08 05:49:21;;;;;;;7.33;6.73;;;1.10;99.90;;;;;;5039362;28;20455;-56
2022/12/08 05:51:48;;;;;;;7.47;6.67;;;1.10;99.90;;;;;;5036490;28;20463;-55
2022/12/08 05:54:14;;;;;;;7.10;6.43;;;1.10;99.90;;;;;;5041227;28;20478;-54
2022/12/08 05:56:42;;;;;;;8.90;7.00;;;1.10;99.90;;;;;;5042452;28;20478;-55
2022/12/08 05:59:09;;;;;;;8.50;7.60;;;1.00;99.90;;;;;;5035946;28;20462;-55
2022/12/08 06:01:36;;;;;;;7.77;7.03;;;1.00;99.90;;;;;;5038018;28;20455;-54
2022/12/08 06:04:04;;;;;;;8.40;7.40;;;1.20;99.90;;;;;;5039801;28;20459;-56
2022/12/08 06:06:31;;;;;;;10.00;7.73;;;1.30;99.90;;;;;;5031739;28;21014;-55
2022/12/08 06:08:58;;;;;;;8.70;7.70;;;1.40;99.90;;;;;;5029380;28;21164;-54
2022/12/08 06:11:28;;;;;;;11.50;7.80;;;1.50;99.90;;;;;;5027645;28;20985;-60
2022/12/08 06:13:56;;;;;;;8.03;7.17;;;1.50;99.90;;;;;;5028311;28;20944;-54
2022/12/08 06:16:24;;;;;;;8.87;7.30;;;1.50;99.90;;;;;;5028736;28;20462;-54
2022/12/08 06:18:51;;;;;;;8.00;7.30;;;1.50;99.90;;;;;;5026309;28;20458;-54
2022/12/08 06:21:19;;;;;;;8.40;7.60;;;1.50;99.90;;;;;;5030484;28;20467;-54
2022/12/08 06:23:48;;;;;;;11.33;8.37;;;1.60;99.90;;;;;;5031997;28;20500;-55
2022/12/08 06:26:16;;;;;;;15.37;8.03;;;1.50;99.90;;;;;;5032975;28;20546;-54
2022/12/08 06:28:43;;;;;;;9.10;8.20;;;1.40;99.90;;;;;;5032879;28;20462;-54
2022/12/08 06:31:14;;;;;;;12.23;9.20;;;1.40;99.90;;;;;;5031429;28;20462;-54
2022/12/08 06:33:41;;;;;;;10.07;8.67;;;1.30;99.90;;;;;;5030257;28;20454;-55
2022/12/08 06:36:07;;;;;;;10.30;8.33;;;1.30;99.90;;;;;;5030576;28;21050;-54
2022/12/08 06:38:34;;;;;;;9.63;8.40;;;1.30;99.90;;;;;;5031571;28;20533;-54
2022/12/08 06:41:01;;;;;;;12.93;8.80;;;1.30;99.90;;;;;;5032376;28;20521;-55
2022/12/08 06:43:28;;;;;;;16.80;10.77;;;1.30;99.90;;;;;;5031668;28;20463;-54
2022/12/08 06:45:54;;;;;;;9.83;8.50;;;1.40;99.90;;;;;;5032244;28;20952;-54
2022/12/08 06:48:23;;;;;;;10.13;9.10;;;1.40;99.90;;;;;;5031294;28;20482;-55
2022/12/08 06:50:51;;;;;;;13.37;9.30;;;1.40;99.90;;;;;;5030526;28;20842;-55
2022/12/08 06:53:26;;;;;;;10.27;9.13;;;1.40;99.90;;;;;;5030544;28;20926;-54
2022/12/08 06:55:54;;;;;;;9.00;8.10;;;1.40;99.90;;;;;;5030049;28;20848;-54
2022/12/08 06:58:22;;;;;;;9.47;8.50;;;1.40;99.90;;;;;;5026725;28;20893;-54
2022/12/08 07:00:51;;;;;;;10.30;8.63;;;1.40;99.90;;;;;;5028547;28;20956;-55
2022/12/08 07:03:26;;;;;;;10.67;8.93;;;1.40;99.90;;;;;;5029749;28;20471;-55
2022/12/08 07:05:58;;;;;;;12.37;8.97;;;1.40;99.90;;;;;;5029012;28;20470;-54
2022/12/08 07:08:25;;;;;;;10.17;8.50;;;1.50;99.90;;;;;;5031652;28;20514;-54
2022/12/08 07:10:55;;;;;;;14.00;8.83;;;1.50;99.90;;;;;;5030167;28;21191;-54
2022/12/08 07:13:23;;;;;;;10.00;9.00;;;1.50;99.90;;;;;;5028098;28;21111;-54
2022/12/08 07:15:51;;;;;;;12.63;9.90;;;1.50;99.90;;;;;;5032148;28;20479;-54
2022/12/08 07:18:21;;;;;;;11.90;9.20;;;1.50;99.90;;;;;;5031036;28;20851;-54
2022/12/08 07:20:52;;;;;;;12.00;8.83;;;1.50;99.90;;;;;;5031424;28;20471;-54
2022/12/08 07:23:20;;;;;;;13.73;10.33;;;1.60;99.90;;;;;;5031316;28;20824;-54
2022/12/08 07:25:50;;;;;;;10.47;9.30;;;1.60;99.90;;;;;;5015656;28;20530;-54
2022/12/08 07:28:22;;;;;;;10.23;9.10;;;1.50;99.90;;;;;;5028380;28;20487;-55
2022/12/08 07:30:59;;;;;;;11.03;8.73;;;1.60;99.90;;;;;;5030482;28;20546;-54
2022/12/08 07:33:36;;;;;;;12.60;9.70;;;1.60;99.90;;;;;;5031635;28;20975;-57
2022/12/08 07:36:09;;;;;;;12.03;9.97;;;1.60;99.90;;;;;;5029434;28;20843;-55
2022/12/08 07:38:39;;;;;;;15.30;9.10;;;1.60;99.90;;;;;;5032193;28;20550;-55
2022/12/08 07:41:06;;;;;;;11.73;10.20;;;1.60;99.90;;;;;;5020700;28;20471;-54
2022/12/08 07:43:37;;;;;;;11.07;8.87;;;1.70;99.90;;;;;;5028887;28;20463;-55
2022/12/08 07:46:12;;;;;;;10.03;9.07;;;1.70;99.90;;;;;;5038921;28;20443;-55
2022/12/08 07:48:45;;;;;;;14.60;8.90;;;1.70;99.90;;;;;;5037773;28;20462;-54
2022/12/08 07:51:21;;;;;;;9.10;8.20;;;1.70;99.90;;;;;;5036278;28;20468;-55
2022/12/08 07:53:53;;;;;;;11.83;9.57;;;1.70;99.90;;;;;;5029034;28;20553;-55
2022/12/08 07:56:23;;;;;;;9.97;8.47;;;1.70;99.90;;;;;;5022209;28;20895;-55
2022/12/08 07:58:52;;;;;;;12.30;9.63;;;1.70;99.90;;;;;;5026798;28;20462;-54
2022/12/08 08:01:27;;;;;;;9.93;8.55;;;1.80;99.90;;;;;;5025301;28;20449;-55
2022/12/08 08:03:57;;;;;;;17.43;9.53;;;1.80;99.90;;;;;;5023109;28;20242;-57
2022/12/08 08:06:30;;;;;;;8.97;8.00;;;1.80;99.90;;;;;;5023217;28;20485;-57
2022/12/08 08:09:02;;;;;;;11.23;7.80;;;1.80;99.90;;;;;;5023400;28;21971;-56
2022/12/08 08:11:30;;;;;;;10.10;8.00;;;1.90;99.90;;;;;;5031056;28;20451;-56
2022/12/08 08:14:00;;;;;;;15.60;8.20;;;1.90;99.90;;;;;;5019624;28;20470;-56
2022/12/08 08:16:28;;;;;;;11.07;8.70;;;1.90;99.90;;;;;;5028899;28;20514;-57
2022/12/08 08:19:01;;;;;;;10.60;8.40;;;1.90;99.90;;;;;;5027979;28;20459;-57
2022/12/08 08:21:30;;;;;;;13.00;8.30;;;1.90;99.90;;;;;;5025073;28;20561;-55
2022/12/08 08:23:58;;;;;;;11.47;8.17;;;2.00;99.90;;;;;;5034187;28;20474;-57
2022/12/08 08:26:27;;;;;;;10.50;8.23;;;2.10;99.90;;;;;;5035584;28;20443;-56
2022/12/08 08:28:57;;;;;;;13.17;8.20;;;2.20;99.90;;;;;;5025626;28;20466;-57
2022/12/08 08:31:25;;;;;;;11.57;9.20;;;2.20;99.90;;;;;;5031549;28;20498;-57
2022/12/08 08:34:03;;;;;;;9.93;8.20;;;2.20;99.90;;;;;;5030289;28;20462;-56
2022/12/08 08:36:38;;;;;;;14.10;9.17;;;2.20;99.90;;;;;;5026950;28;20514;-57
2022/12/08 08:39:08;;;;;;;11.77;8.40;;;2.20;99.90;;;;;;5033780;28;20500;-57
2022/12/08 08:41:36;;;;;;;10.97;8.50;;;2.20;99.90;;;;;;5032313;28;20467;-57
2022/12/08 08:44:08;;;;;;;13.30;9.20;;;2.20;99.90;;;;;;5033216;28;20466;-57
2022/12/08 08:46:35;;;;;;;11.20;8.23;;;2.20;99.90;;;;;;5032166;28;20525;-56
2022/12/08 08:49:06;;;;;;;12.80;8.60;;;2.20;99.90;;;;;;5031061;28;20983;-56
2022/12/08 08:52:03;;;;;;;12.27;8.67;;;2.20;99.90;;;;;;5031304;28;20533;-57
2022/12/08 08:54:34;;;;;;;11.30;8.83;;;2.20;99.90;;;;;;5031990;28;20484;-57
2022/12/08 08:57:12;;;;;;;16.30;9.17;;;2.20;99.90;;;;;;5034186;28;20541;-57
2022/12/08 08:59:39;;;;;;;15.50;10.20;;;2.20;99.90;;;;;;5033302;28;20466;-57
2022/12/08 09:02:10;;;;;;;18.10;9.30;;;2.20;99.90;;;;;;5030899;28;20486;-57
2022/12/08 09:04:38;;;;;;;10.70;8.00;;;2.20;99.90;;;;;;5029942;28;20488;-57
2022/12/08 09:07:07;;;;;;;8.30;7.50;;;2.30;99.90;;;;;;5033871;28;20478;-56
2022/12/08 09:09:34;;;;;;;13.70;7.90;;;2.30;99.90;;;;;;5030483;28;20473;-57
2022/12/08 09:12:04;;;;;;;17.07;8.57;;;2.30;99.90;;;;;;5030211;28;20470;-57
2022/12/08 09:14:35;;;;;;;10.37;9.17;;;2.30;99.90;;;;;;5034332;28;20463;-56
2022/12/08 09:17:05;;;;;;;11.00;8.20;;;2.30;99.90;;;;;;5032145;28;20532;-56
2022/12/08 09:19:37;;;;;;;11.97;8.97;;;2.30;99.90;;;;;;5033043;28;20462;-56
2022/12/08 09:22:10;;;;;;;10.80;8.27;;;2.40;99.90;;;;;;5031388;28;20490;-56
2022/12/08 09:24:37;;;;;;;11.30;7.90;;;2.40;99.90;;;;;;5033837;28;20447;-58
2022/12/08 09:27:05;;;;;;;17.43;8.37;;;2.50;99.90;;;;;;5033099;28;20470;-57
2022/12/08 09:29:31;;;;;;;16.93;8.03;;;2.50;99.90;;;;;;5029713;28;20489;-51
2022/12/08 09:31:58;;;;;;;17.67;9.70;;;2.50;99.90;;;;;;5034264;28;20856;-51
2022/12/08 09:34:25;;;;;;;23.00;8.37;;;2.50;99.90;;;;;;5033168;28;20462;-52
2022/12/08 09:36:51;;;;;;;11.50;7.67;;;2.60;99.90;;;;;;5034228;28;20490;-52
2022/12/08 09:39:19;;;;;;;13.40;8.40;;;2.60;99.90;;;;;;5034266;28;20447;-51
2022/12/08 09:41:49;;;;;;;13.60;8.57;;;2.60;99.90;;;;;;5033901;28;20496;-51
2022/12/08 09:44:40;;;;;;;12.23;8.27;;;2.50;99.90;;;;;;5031580;28;20463;-52
2022/12/08 09:47:15;;;;;;;10.17;7.53;;;2.50;99.90;;;;;;5034881;28;20473;-51
2022/12/08 09:49:45;;;;;;;9.70;7.57;;;2.40;99.90;;;;;;5033257;28;20466;-51
2022/12/08 09:52:18;;;;;;;11.67;7.63;;;2.40;99.90;;;;;;5014429;28;20478;-51
2022/12/08 09:54:46;;;;;;;10.87;7.37;;;2.40;99.90;;;;;;4997256;28;20447;-51
2022/12/08 09:57:16;;;;;;;7.83;7.03;;;2.30;99.90;;;;;;5024206;28;20995;-51
2022/12/08 09:59:47;;;;;;;8.37;7.50;;;2.30;99.90;;;;;;5034024;28;20542;-56
2022/12/08 10:02:25;;;;;;;12.40;7.80;;;2.30;99.90;;;;;;5033446;28;20463;-52
2022/12/08 10:04:54;;;;;;;10.43;7.47;;;2.30;99.90;;;;;;5032355;28;20481;-52
2022/12/08 10:07:32;;;;;;;9.90;7.70;;;2.30;99.90;;;;;;5048627;23;20502;-55
2022/12/08 10:10:05;;;;;;;9.37;7.10;;;2.40;99.90;;;;;;5052436;28;20467;-55
2022/12/08 10:12:40;;;;;;;12.73;7.20;;;2.30;99.90;;;;;;5052733;28;20885;-55
2022/12/08 10:15:26;;;;;;;11.00;8.10;;;2.30;99.90;;;;;;5053340;28;20852;-54
2022/12/08 10:17:54;;;;;;;11.07;8.07;;;2.30;99.90;;;;;;5048125;28;20477;-54
2022/12/08 10:20:23;;;;;;;12.60;8.40;;;2.30;99.90;;;;;;5043048;28;20512;-54
2022/12/08 10:22:55;;;;;;;8.83;7.57;;;2.30;99.90;;;;;;5051599;28;20803;-54
2022/12/08 10:25:30;;;;;;;7.87;7.07;;;2.30;99.90;;;;;;5047426;28;20504;-53
2022/12/08 10:27:58;;;;;;;10.07;7.87;;;2.30;99.90;;;;;;5049613;28;20485;-54
2022/12/08 10:30:25;;;;;;;11.13;7.37;;;2.30;99.90;;;;;;5050557;28;20528;-54
2022/12/08 10:32:53;;;;;;;9.93;7.47;;;2.20;99.90;;;;;;5049769;28;20511;-56
2022/12/08 10:35:22;;;;;;;12.00;8.60;;;2.30;99.90;;;;;;5047318;28;20509;-54
2022/12/08 10:37:56;;;;;;;13.10;9.30;;;2.30;99.90;;;;;;5045513;28;20494;-54
2022/12/08 10:40:27;;;;;;;14.43;8.90;;;2.30;99.90;;;;;;5045648;28;20465;-54
2022/12/08 10:42:57;;;;;;;9.77;7.60;;;2.30;99.90;;;;;;5047866;28;20462;-56
2022/12/08 10:45:27;;;;;;;22.77;8.00;;;2.30;99.90;;;;;;5050292;28;20457;-55
2022/12/08 10:48:00;;;;;;;9.67;7.97;;;2.30;99.90;;;;;;5045869;28;20474;-54
2022/12/08 10:50:33;;;;;;;10.60;8.00;;;2.30;99.90;;;;;;5046876;28;20457;-55
2022/12/08 10:53:02;;;;;;;11.33;8.87;;;2.30;99.90;;;;;;5050007;28;21001;-54
2022/12/08 10:55:41;;;;;;;14.20;7.90;;;2.30;99.90;;;;;;5046777;28;20543;-55
2022/12/08 10:58:27;;;;;;;15.00;8.50;;;2.40;99.90;;;;;;5046733;28;20515;-55
2022/12/08 11:00:55;;;;;;;9.10;8.20;;;2.30;99.90;;;;;;5045375;28;20531;-55
2022/12/08 11:03:27;;;;;;;11.23;8.90;;;2.40;99.90;;;;;;5044218;28;22076;-56
2022/12/08 11:05:58;;;;;;;8.47;7.40;;;2.40;99.90;;;;;;5049410;28;20437;-54
2022/12/08 11:08:25;;;;;;;9.93;7.67;;;2.40;99.90;;;;;;5046875;28;20547;-55
2022/12/08 11:10:53;;;;;;;14.40;8.33;;;2.40;99.90;;;;;;5046543;28;20515;-54
2022/12/08 11:13:24;;;;;;;9.50;8.30;;;2.40;99.90;;;;;;5040714;28;20516;-54
2022/12/08 11:15:53;;;;;;;7.97;7.27;;;2.40;99.90;;;;;;5048093;28;21018;-55
2022/12/08 11:18:39;;;;;;;9.80;8.50;;;2.40;99.90;;;;;;5048173;28;20964;-55
2022/12/08 11:21:09;;;;;;;8.27;7.37;;;2.40;99.90;;;;;;5044239;28;20898;-54
2022/12/08 11:23:37;;;;;;;11.83;7.90;;;2.40;99.90;;;;;;5045622;28;20507;-53
2022/12/08 11:26:13;;;;;;;9.90;7.20;;;2.50;99.90;;;;;;5046693;28;20520;-55
2022/12/08 11:28:39;;;;;;;8.50;7.70;;;2.50;99.90;;;;;;5046969;28;20485;-55
2022/12/08 11:31:18;;;;;;;10.77;8.17;;;2.50;99.90;;;;;;5044419;28;20989;-55
2022/12/08 11:33:46;;;;;;;8.27;7.47;;;2.40;99.90;;;;;;5044930;28;20465;-54
2022/12/08 11:36:15;;;;;;;10.07;7.87;;;2.40;99.90;;;;;;5038715;28;20486;-54
2022/12/08 11:38:45;;;;;;;10.13;8.23;;;2.40;99.90;;;;;;5047050;28;20489;-54
2022/12/08 11:41:16;;;;;;;10.50;8.30;;;2.40;99.90;;;;;;5045781;28;21012;-55
2022/12/08 11:43:48;;;;;;;7.90;7.20;;;2.40;99.90;;;;;;5043987;28;20505;-55
2022/12/08 11:46:20;;;;;;;8.90;8.00;;;2.50;99.90;;;;;;5041287;28;20458;-54
2022/12/08 11:48:52;;;;;;;7.97;7.27;;;2.40;99.90;;;;;;5045729;28;20528;-53
2022/12/08 11:51:28;;;;;;;7.13;5.83;;;2.40;99.90;;;;;;5041884;28;20463;-54
2022/12/08 11:54:12;;;;;;;6.33;5.70;;;2.40;99.90;;;;;;5049429;28;20446;-55
2022/12/08 11:56:45;;;;;;;7.43;6.37;;;2.40;99.90;;;;;;5048976;28;21068;-54
2022/12/08 11:59:21;;;;;;;7.13;6.40;;;2.40;99.90;;;;;;5043646;28;20456;-54
2022/12/08 12:01:47;;;;;;;8.50;6.27;;;2.30;99.90;;;;;;5043562;28;20462;-55
2022/12/08 12:04:22;;;;;;;7.40;6.70;;;2.30;99.90;;;;;;5046399;28;20821;-55
2022/12/08 12:07:17;;;;;;;7.17;6.43;;;2.30;99.90;;;;;;5048977;28;20461;-55
2022/12/08 12:09:55;;;;;;;6.20;5.60;;;2.40;99.90;;;;;;5051566;28;20499;-56
2022/12/08 12:12:34;;;;;;;7.87;7.07;;;2.40;99.90;;;;;;5044278;28;20462;-54
2022/12/08 12:15:33;;;;;;;7.20;6.20;;;2.40;99.90;;;;;;5050836;28;20450;-55
2022/12/08 12:18:04;;;;;;;7.10;6.40;;;2.40;99.90;;;;;;5044864;28;21064;-55
2022/12/08 12:20:34;;;;;;;8.20;6.60;;;2.40;99.90;;;;;;5049035;28;20492;-55
2022/12/08 12:23:04;;;;;;;9.20;6.30;;;2.40;99.90;;;;;;5046817;28;20466;-55
2022/12/08 12:25:33;;;;;;;7.37;6.67;;;2.40;99.90;;;;;;5049240;28;20446;-55
2022/12/08 12:28:04;;;;;;;10.07;8.10;;;2.40;99.90;;;;;;5051137;28;20465;-55
2022/12/08 12:30:49;;;;;;;9.10;8.20;;;2.40;99.90;;;;;;5043778;28;20503;-54
2022/12/08 12:33:18;;;;;;;8.10;7.30;;;2.40;99.90;;;;;;5038223;28;20456;-53
2022/12/08 12:35:47;;;;;;;9.80;8.10;;;2.40;99.90;;;;;;5048709;28;20959;-54
2022/12/08 12:41:08;;;;;;;8.47;7.13;;;2.40;99.90;;;;;;5045189;28;20569;-54
2022/12/08 12:43:37;;;;;;;10.53;8.77;;;2.40;99.90;;;;;;5047267;28;20856;-54
2022/12/08 12:46:39;;;;;;;8.63;7.73;;;2.50;99.90;;;;;;5041714;28;21958;-55
2022/12/08 12:49:44;;;;;;;11.30;8.23;;;2.50;99.90;;;;;;5043157;28;20560;-56
2022/12/08 12:52:48;;;;;;;9.10;8.20;;;2.50;99.90;;;;;;5043576;28;20868;-54
2022/12/08 12:55:48;;;;;;;9.20;7.63;;;2.60;99.90;;;;;;5046146;28;20540;-54
2022/12/08 12:58:39;;;;;;;10.20;8.90;;;2.60;99.90;;;;;;5039039;28;20486;-54
2022/12/08 13:01:55;;;;;;;10.50;8.20;;;2.60;99.90;;;;;;5045516;28;20531;-54
2022/12/08 13:04:31;;;;;;;13.20;8.80;;;2.60;99.90;;;;;;5051586;28;20808;-55
2022/12/08 13:06:58;;;;;;;9.10;8.20;;;2.60;99.90;;;;;;5051997;28;20531;-54
2022/12/08 13:09:32;;;;;;;9.07;8.27;;;2.70;99.90;;;;;;5054674;28;20499;-54
2022/12/08 13:12:07;;;;;;;10.90;8.00;;;2.70;99.90;;;;;;5050762;28;20474;-53
2022/12/08 13:14:37;;;;;;;10.30;8.60;;;2.70;99.90;;;;;;5047045;28;20574;-53
2022/12/08 13:17:09;;;;;;;9.07;8.17;;;2.70;99.90;;;;;;5051309;28;20495;-54
2022/12/08 13:19:38;;;;;;;7.70;7.00;;;2.70;99.90;;;;;;5045662;28;21032;-55